Portada
METAR-TAF:

METAR-TAF

Aeroports :

Iaroslavl, Rússia

latitud: 57-33-38N, longitud: 040-09-27E, altitud: 87 m

Observació

L'informe es va fer fa 22 minuts, a les 03:30 UTC
Vent 10 kt del Sud-Oest
Temperatura 2°C
Humitat 80%
Pressió 1001 hPa
Visibilitat 10 km o més
Cel cobert a una alçada de 1600 ft

METAR: UUDL 070330Z 23005MPS 9999 OVC016 02/M01 Q1001 R23/290050 NOSIG RMK QFE743

Hora: 06:52 (03:52 UTC)

Pronòstic

L'informe es va fer fa 1 hora i 52 minuts, a les 02:00 UTC
Pronòstic vàlid del 07 a les 03 UTC al 08 a les 03 UTC
Vent 12 kt del Oest/Sud-Oest amb ràfegues de 21 kt
Visibilitat 10 km o més
Cel cobert a una alçada de 2000 ft
Temporalment
l' 07 a les 09 UTC al 07 a les 15 UTC
Visibilitat: 4000 m
Cel ennuvolat a una alçada de 1100 ft
pluja
Evolucionant progressivament
l' 07 a les 13 UTC al 07 a les 15 UTC
Vent 16 kt del Sud amb ràfegues de 27 kt

TAF: UUDL 070200Z 0703/0803 24006G11MPS 9999 OVC020 TX02/0712Z TN00/0721Z TEMPO 0709/0715 4000 -RA BKN011 BECMG 0713/0715 18008G14MPS

Observacions i pronòstics meteorològics de més de 4000 aeroports (METAR i TAF).

Les estacions disponibles són els punts grocs i vermells al mapa.

Posi el ratolí al punt desitjat per veure el nom de l'estació.

Feu clic per veure les observacions i els pronòstics meteorològics.

Per canviar el mapa: feu clic els botons verds amb una creu de color negre per apropar; al botó verd amb un guió per allunyar la imatge; o en les fletxes verdes per a mapes adjacents.


METAR-TAF: